createdAt,value
2019-02-16T00:01:42.332Z,1012.37
2019-02-16T00:30:17.514Z,1012.03
2019-02-16T00:58:57.358Z,1011.88
2019-02-16T01:27:26.954Z,1011.77
2019-02-16T01:56:05.145Z,1011.59
2019-02-16T02:24:39.976Z,1011.34
2019-02-16T02:53:14.186Z,1011.16
2019-02-16T03:21:50.284Z,1010.92
2019-02-16T03:50:24.746Z,1010.92
2019-02-16T04:18:58.491Z,1010.73
2019-02-16T04:47:32.502Z,1010.82
2019-02-16T05:16:04.911Z,1010.78
2019-02-16T05:44:43.797Z,1010.62
2019-02-16T06:13:15.491Z,1010.5
2019-02-16T06:41:48.453Z,1010.63
2019-02-16T07:10:23.645Z,1010.96
2019-02-16T07:39:17.244Z,1011.09
2019-02-16T08:07:52.933Z,1010.89
2019-02-16T08:36:40.578Z,1010.74
2019-02-16T09:05:21.050Z,1010.23
2019-02-16T09:34:08.320Z,1009.92
2019-02-16T10:02:56.221Z,1009.77
2019-02-16T10:31:42.627Z,1009.5
2019-02-16T11:00:35.758Z,1008.89
2019-02-16T11:29:27.298Z,1008.73
2019-02-16T11:58:15.692Z,1008.49
2019-02-16T12:26:57.202Z,1008.15
2019-02-16T12:55:48.023Z,1007.77
2019-02-16T13:24:13.460Z,1007.67
2019-02-16T13:52:55.441Z,1007.4
2019-02-16T14:21:33.714Z,1007.31
2019-02-16T14:50:13.339Z,1007.18
2019-02-16T15:18:49.983Z,1007.3
2019-02-16T15:47:25.629Z,1007.33
2019-02-16T16:15:57.205Z,1007.41
2019-02-16T16:44:30.175Z,1007.4
2019-02-16T17:13:00.210Z,1007.65
2019-02-16T17:41:31.134Z,1007.72
2019-02-16T18:10:03.527Z,1007.91
2019-02-16T18:38:38.467Z,1007.73
2019-02-16T19:07:09.418Z,1007.65
2019-02-16T19:35:43.510Z,1007.73
2019-02-16T20:04:18.050Z,1008.01
2019-02-16T20:32:46.871Z,1008.05
2019-02-16T21:01:21.317Z,1008.15
2019-02-16T21:29:59.041Z,1008.31
2019-02-16T21:58:31.404Z,1008.34
2019-02-16T22:27:06.237Z,1008.26
2019-02-16T22:55:43.215Z,1008.38
2019-02-16T23:24:18.752Z,1008.32
2019-02-16T23:52:55.295Z,1008.38
